Main page
METAR-TAF:

METAR-TAF

Airports :

Turku Airport

Turku, Finland

latitude: 60-31N, longitude: 022-16E, elevation: 49 m

Current weather observation

The report was made 37 minutes ago, at 17:20 UTC
Wind 7 kt from the North/Northwest, varying between West and North/Northeast
Temperature 16°C
Humidity 48%
Pressure 1013 hPa
Visibility 10 km or more
no clouds below 1500 m and no cumulonimbus

METAR: EFTU 211720Z AUTO 33007KT 270V020 CAVOK 16/05 Q1013

Time: 20:57 (17:57 UTC)

Forecast

The report was made 30 minutes ago, at 17:27 UTC
Forecast valid from 21 at 18 UTC to 22 at 18 UTC
Wind 6 kt from the Northwest
Visibility 10 km or more
no clouds below 1500 m and no cumulonimbus

TAF: EFTU 211727Z 2118/2218 31006KT CAVOK

Weather observations and forecasts of more than 4000 airports (METAR and TAF reports).

The available stations are represented by yellow and red dots on the map.

Hover mouse over dot to see the name of the station.

Then click to see weather observations and forecasts.

To change the map : click on the green buttons with a black cross to zoom in, on the green button with a dash to zoom out, or on the green arrows for adjacent maps.


METAR-TAF: